Time,TemperatureF,DewpointF,PressureIn,WindDirection,WindDirectionDegrees,WindSpeedMPH,WindSpeedGustMPH,Humidity,HourlyPrecipIn,Conditions,Clouds,dailyrainin,SoftwareType,DateUTC
2013-09-19 00:00:00,52.8,49.3,28.20,South,169,0.0,0.0,88,0.00,,,0.00,Wunderground v.1.15,2013-09-19 04:00:00,
2013-09-19 00:06:00,53.0,50.0,28.20,South,169,0.0,-999.0,88,-99.99,,,0.00,weatherlink.com 1.10,2013-09-19 04:06:00,
2013-09-19 00:21:00,53.5,50.0,28.20,South,186,2.0,-999.0,88,-99.99,,,0.00,weatherlink.com 1.10,2013-09-19 04:21:00,
2013-09-19 00:30:00,54.1,50.3,28.20,South,180,1.0,1.0,87,0.00,,,0.00,Wunderground v.1.15,2013-09-19 04:30:00,
2013-09-19 00:37:00,54.4,51.0,28.20,South,178,0.0,-999.0,87,-99.99,,,0.00,weatherlink.com 1.10,2013-09-19 04:37:00,
2013-09-19 00:52:00,55.4,51.0,28.20,South,177,0.0,-999.0,86,-99.99,,,0.00,weatherlink.com 1.10,2013-09-19 04:52:00,
2013-09-19 01:00:00,55.7,51.3,28.20,South,178,0.0,0.0,85,0.00,,,0.00,Wunderground v.1.15,2013-09-19 05:00:00,
2013-09-19 01:07:00,55.8,51.0,28.20,South,184,0.0,-999.0,85,-99.99,,,0.00,weatherlink.com 1.10,2013-09-19 05:07:00,
2013-09-19 01:22:00,55.5,51.0,28.20,South,182,0.0,-999.0,84,-99.99,,,0.00,weatherlink.com 1.10,2013-09-19 05:22:00,
2013-09-19 01:30:00,55.0,50.3,28.20,South,182,0.0,0.0,84,0.00,,,0.00,Wunderground v.1.15,2013-09-19 05:30:00,
2013-09-19 01:37:00,54.7,50.0,28.20,South,184,0.0,-999.0,84,-99.99,,,0.00,weatherlink.com 1.10,2013-09-19 05:37:00,
2013-09-19 01:52:00,53.9,50.0,28.20,South,188,0.0,-999.0,85,-99.99,,,0.00,weatherlink.com 1.10,2013-09-19 05:52:00,
2013-09-19 02:00:00,53.7,49.6,28.20,South,182,0.0,0.0,86,0.00,,,0.00,Wunderground v.1.15,2013-09-19 06:00:00,
2013-09-19 02:06:00,53.8,50.0,28.20,South,170,0.0,-999.0,86,-99.99,,,0.00,weatherlink.com 1.10,2013-09-19 06:06:00,
2013-09-19 02:21:00,54.3,50.0,28.20,South,183,0.0,-999.0,84,-99.99,,,0.00,weatherlink.com 1.10,2013-09-19 06:21:00,
2013-09-19 02:30:00,54.1,49.1,28.20,South,182,0.0,0.0,83,0.00,,,0.00,Wunderground v.1.15,2013-09-19 06:30:00,
2013-09-19 02:37:00,54.0,49.0,28.20,South,179,0.0,-999.0,83,-99.99,,,0.00,weatherlink.com 1.10,2013-09-19 06:37:00,
2013-09-19 02:52:00,54.3,49.0,28.20,South,173,0.0,-999.0,83,-99.99,,,0.00,weatherlink.com 1.10,2013-09-19 06:52:00,
2013-09-19 03:00:00,54.3,48.9,28.20,South,178,0.0,0.0,82,0.00,,,0.00,Wunderground v.1.15,2013-09-19 07:00:00,
2013-09-19 03:07:00,54.3,49.0,28.20,South,180,1.0,-999.0,82,-99.99,,,0.00,weatherlink.com 1.10,2013-09-19 07:07:00,
2013-09-19 03:22:00,54.3,49.0,28.20,South,173,0.0,-999.0,81,-99.99,,,0.00,weatherlink.com 1.10,2013-09-19 07:22:00,
2013-09-19 03:30:00,54.3,48.6,28.20,South,175,1.0,1.0,81,0.00,,,0.00,Wunderground v.1.15,2013-09-19 07:30:00,
2013-09-19 03:37:00,54.2,49.0,28.20,South,179,0.0,-999.0,81,-99.99,,,0.00,weatherlink.com 1.10,2013-09-19 07:37:00,
2013-09-19 03:52:00,54.3,49.0,28.20,South,182,0.0,-999.0,81,-99.99,,,0.00,weatherlink.com 1.10,2013-09-19 07:52:00,
2013-09-19 04:00:00,53.9,48.2,28.20,South,179,0.0,7.0,81,0.00,,,0.00,Wunderground v.1.15,2013-09-19 08:00:00,
2013-09-19 04:07:00,53.7,48.0,28.20,South,178,0.0,-999.0,81,-99.99,,,0.00,weatherlink.com 1.10,2013-09-19 08:07:00,
2013-09-19 04:22:00,53.5,48.0,28.20,South,178,0.0,-999.0,82,-99.99,,,0.00,weatherlink.com 1.10,2013-09-19 08:22:00,
2013-09-19 04:30:00,53.5,48.1,28.20,South,179,0.0,7.0,82,0.00,,,0.00,Wunderground v.1.15,2013-09-19 08:30:00,
2013-09-19 04:37:00,53.5,48.0,28.20,South,178,0.0,-999.0,82,-99.99,,,0.00,weatherlink.com 1.10,2013-09-19 08:37:00,
2013-09-19 04:52:00,53.5,48.0,28.20,South,171,0.0,-999.0,81,-99.99,,,0.00,weatherlink.com 1.10,2013-09-19 08:52:00,
2013-09-19 05:00:00,53.4,47.7,28.20,South,188,0.0,7.0,81,0.00,,,0.00,Wunderground v.1.15,2013-09-19 09:00:00,
2013-09-19 05:07:00,53.3,48.0,28.20,South,178,0.0,-999.0,82,-99.99,,,0.00,weatherlink.com 1.10,2013-09-19 09:07:00,
2013-09-19 05:22:00,53.3,48.0,28.20,South,169,0.0,-999.0,82,-99.99,,,0.00,weatherlink.com 1.10,2013-09-19 09:22:00,
2013-09-19 05:30:00,53.4,48.0,28.20,South,174,0.0,7.0,82,0.00,,,0.00,Wunderground v.1.15,2013-09-19 09:30:00,
2013-09-19 05:37:00,53.5,48.0,28.20,South,187,0.0,-999.0,82,-99.99,,,0.00,weatherlink.com 1.10,2013-09-19 09:37:00,
2013-09-19 05:52:00,53.5,48.0,28.20,South,183,0.0,-999.0,81,-99.99,,,0.00,weatherlink.com 1.10,2013-09-19 09:52:00,
2013-09-19 06:00:00,53.4,47.7,28.19,South,182,0.0,5.0,81,0.00,,,0.00,Wunderground v.1.15,2013-09-19 10:00:00,
2013-09-19 06:07:00,53.4,48.0,28.19,South,182,0.0,-999.0,82,-99.99,,,0.00,weatherlink.com 1.10,2013-09-19 10:07:00,
2013-09-19 06:22:00,53.3,48.0,28.20,South,175,0.0,-999.0,82,-99.99,,,0.00,weatherlink.com 1.10,2013-09-19 10:22:00,
2013-09-19 06:30:00,53.2,47.8,28.19,South,173,0.0,5.0,82,0.00,,,0.00,Wunderground v.1.15,2013-09-19 10:30:00,
2013-09-19 06:37:00,53.2,48.0,28.19,South,173,0.0,-999.0,82,-99.99,,,0.00,weatherlink.com 1.10,2013-09-19 10:37:00,
2013-09-19 06:52:00,53.3,48.0,28.19,South,183,0.0,-999.0,82,-99.99,,,0.00,weatherlink.com 1.10,2013-09-19 10:52:00,
2013-09-19 07:00:00,53.2,47.8,28.19,South,176,0.0,5.0,82,0.00,,,0.00,Wunderground v.1.15,2013-09-19 11:00:00,
2013-09-19 07:07:00,53.1,48.0,28.20,South,175,0.0,-999.0,82,-99.99,,,0.00,weatherlink.com 1.10,2013-09-19 11:07:00,
2013-09-19 07:22:00,52.8,48.0,28.20,South,173,0.0,-999.0,83,-99.99,,,0.00,weatherlink.com 1.10,2013-09-19 11:22:00,
2013-09-19 07:30:00,52.9,47.9,28.20,South,178,0.0,5.0,83,0.00,,,0.00,Wunderground v.1.15,2013-09-19 11:30:00,
2013-09-19 07:52:00,54.1,49.0,28.20,SSE,168,0.0,-999.0,84,-99.99,,,0.00,weatherlink.com 1.10,2013-09-19 11:52:00,
2013-09-19 08:00:00,54.7,50.0,28.21,South,171,0.0,0.0,84,0.00,,,0.00,Wunderground v.1.15,2013-09-19 12:00:00,
2013-09-19 08:07:00,55.2,50.0,28.21,South,175,0.0,-999.0,83,-99.99,,,0.00,weatherlink.com 1.10,2013-09-19 12:07:00,
2013-09-19 08:22:00,56.8,51.0,28.20,South,180,0.0,-999.0,81,-99.99,,,0.00,weatherlink.com 1.10,2013-09-19 12:22:00,
2013-09-19 08:30:00,57.5,51.7,28.21,South,184,0.0,0.0,81,0.00,,,0.00,Wunderground v.1.15,2013-09-19 12:30:00,
2013-09-19 08:38:00,58.4,52.0,28.21,South,188,0.0,-999.0,80,-99.99,,,0.00,weatherlink.com 1.10,2013-09-19 12:38:00,
2013-09-19 08:53:00,60.2,53.0,28.21,SSW,195,0.0,-999.0,78,-99.99,,,0.00,weatherlink.com 1.10,2013-09-19 12:53:00,
2013-09-19 09:00:00,60.9,53.6,28.21,SSW,202,0.0,0.0,77,0.00,,,0.00,Wunderground v.1.15,2013-09-19 13:00:00,
2013-09-19 09:08:00,61.5,54.0,28.21,SSW,206,0.0,-999.0,76,-99.99,,,0.00,weatherlink.com 1.10,2013-09-19 13:08:00,
2013-09-19 09:23:00,62.7,54.0,28.21,SSW,200,0.0,-999.0,74,-99.99,,,0.00,weatherlink.com 1.10,2013-09-19 13:23:00,
2013-09-19 09:30:00,63.2,54.8,28.21,SSW,198,0.0,0.0,74,0.00,,,0.00,Wunderground v.1.15,2013-09-19 13:30:00,
2013-09-19 09:38:00,64.0,56.0,28.21,South,186,0.0,-999.0,74,-99.99,,,0.00,weatherlink.com 1.10,2013-09-19 13:38:00,
2013-09-19 09:53:00,65.6,57.0,28.22,SW,217,1.0,-999.0,73,-99.99,,,0.00,weatherlink.com 1.10,2013-09-19 13:53:00,
2013-09-19 10:00:00,66.1,57.6,28.22,SSW,205,4.0,4.0,74,0.00,,,0.00,Wunderground v.1.15,2013-09-19 14:00:00,
2013-09-19 10:07:00,66.5,58.0,28.22,SSW,208,0.0,-999.0,75,-99.99,,,0.00,weatherlink.com 1.10,2013-09-19 14:07:00,
2013-09-19 10:22:00,67.4,60.0,28.22,WSW,245,1.0,-999.0,77,-99.99,,,0.00,weatherlink.com 1.10,2013-09-19 14:22:00,
2013-09-19 10:29:00,67.6,60.1,28.22,SW,217,3.0,3.0,77,0.00,,,0.00,Wunderground v.1.15,2013-09-19 14:29:00,
2013-09-19 10:37:00,67.8,60.0,28.22,SW,233,0.0,-999.0,77,-99.99,,,0.00,weatherlink.com 1.10,2013-09-19 14:37:00,
2013-09-19 10:52:00,68.2,60.0,28.22,SSW,205,0.0,-999.0,76,-99.99,,,0.00,weatherlink.com 1.10,2013-09-19 14:52:00,
2013-09-19 11:00:00,68.5,60.6,28.22,WSW,254,2.0,2.0,76,0.00,,,0.00,Wunderground v.1.15,2013-09-19 15:00:00,
2013-09-19 11:08:00,68.8,61.0,28.22,SSW,213,0.0,-999.0,75,-99.99,,,0.00,weatherlink.com 1.10,2013-09-19 15:08:00,
2013-09-19 11:23:00,69.4,61.0,28.21,WSW,245,0.0,-999.0,74,-99.99,,,0.00,weatherlink.com 1.10,2013-09-19 15:23:00,
2013-09-19 11:30:00,69.6,60.2,28.22,South,183,0.0,5.0,72,0.00,,,0.00,Wunderground v.1.15,2013-09-19 15:30:00,
2013-09-19 11:38:00,69.8,60.0,28.21,West,277,0.0,-999.0,72,-99.99,,,0.00,weatherlink.com 1.10,2013-09-19 15:38:00,
2013-09-19 11:53:00,70.3,60.0,28.21,South,169,0.0,-999.0,70,-99.99,,,0.00,weatherlink.com 1.10,2013-09-19 15:53:00,
2013-09-19 12:00:00,70.7,60.0,28.21,SSW,199,2.0,7.0,69,0.00,,,0.00,Wunderground v.1.15,2013-09-19 16:00:00,
2013-09-19 12:08:00,70.9,60.0,28.20,SSE,161,0.0,-999.0,68,-99.99,,,0.00,weatherlink.com 1.10,2013-09-19 16:08:00,
2013-09-19 12:23:00,71.7,59.0,28.19,South,173,1.0,-999.0,65,-99.99,,,0.00,weatherlink.com 1.10,2013-09-19 16:23:00,
2013-09-19 12:30:00,71.9,59.5,28.19,SE,132,1.0,1.0,65,0.00,,,0.00,Wunderground v.1.15,2013-09-19 16:30:00,
2013-09-19 12:38:00,72.3,59.0,28.19,ESE,121,0.0,-999.0,64,-99.99,,,0.00,weatherlink.com 1.10,2013-09-19 16:38:00,
2013-09-19 12:53:00,73.1,58.0,28.18,SSE,157,0.0,-999.0,60,-99.99,,,0.00,weatherlink.com 1.10,2013-09-19 16:53:00,
2013-09-19 13:00:00,73.3,59.5,28.18,SSE,161,0.0,7.0,62,0.00,,,0.00,Wunderground v.1.15,2013-09-19 17:00:00,
2013-09-19 13:08:00,73.7,59.0,28.17,SSE,148,0.0,-999.0,61,-99.99,,,0.00,weatherlink.com 1.10,2013-09-19 17:08:00,
2013-09-19 13:23:00,73.8,58.0,28.17,SSE,152,0.0,-999.0,58,-99.99,,,0.00,weatherlink.com 1.10,2013-09-19 17:23:00,
2013-09-19 13:30:00,73.9,59.6,28.17,SSE,148,2.0,7.0,61,0.00,,,0.00,Wunderground v.1.15,2013-09-19 17:30:00,
2013-09-19 13:39:00,74.0,59.0,28.17,South,169,0.0,-999.0,60,-99.99,,,0.00,weatherlink.com 1.10,2013-09-19 17:39:00,
2013-09-19 13:54:00,74.2,60.0,28.16,South,190,7.0,-999.0,61,-99.99,,,0.00,weatherlink.com 1.10,2013-09-19 17:54:00,
2013-09-19 14:00:00,74.4,61.0,28.16,SW,227,1.0,1.0,63,0.00,,,0.00,Wunderground v.1.15,2013-09-19 18:00:00,
2013-09-19 14:08:00,74.4,59.0,28.16,SSW,208,0.0,-999.0,60,-99.99,,,0.00,weatherlink.com 1.10,2013-09-19 18:08:00,
2013-09-19 14:23:00,74.8,59.0,28.16,SW,234,3.0,-999.0,59,-99.99,,,0.00,weatherlink.com 1.10,2013-09-19 18:23:00,
2013-09-19 14:30:00,74.7,59.9,28.16,WSW,245,2.0,2.0,60,0.00,,,0.00,Wunderground v.1.15,2013-09-19 18:30:00,
2013-09-19 14:39:00,75.0,61.0,28.15,South,179,8.0,-999.0,61,-99.99,,,0.00,weatherlink.com 1.10,2013-09-19 18:39:00,
2013-09-19 14:54:00,75.3,61.0,28.15,SW,219,6.0,-999.0,61,-99.99,,,0.00,weatherlink.com 1.10,2013-09-19 18:54:00,
2013-09-19 15:00:00,75.3,60.5,28.15,SW,230,2.0,10.0,60,0.00,,,0.00,Wunderground v.1.15,2013-09-19 19:00:00,
2013-09-19 15:09:00,74.8,59.0,28.15,South,178,0.0,-999.0,59,-99.99,,,0.00,weatherlink.com 1.10,2013-09-19 19:09:00,
2013-09-19 15:24:00,75.3,60.0,28.15,South,191,0.0,-999.0,59,-99.99,,,0.00,weatherlink.com 1.10,2013-09-19 19:24:00,
2013-09-19 15:30:00,75.8,60.4,28.15,SSW,200,0.0,10.0,59,0.00,,,0.00,Wunderground v.1.15,2013-09-19 19:30:00,
2013-09-19 15:39:00,76.2,60.0,28.14,WSW,246,3.0,-999.0,57,-99.99,,,0.00,weatherlink.com 1.10,2013-09-19 19:39:00,
2013-09-19 15:54:00,76.0,60.0,28.14,SSW,200,0.0,-999.0,58,-99.99,,,0.00,weatherlink.com 1.10,2013-09-19 19:54:00,
2013-09-19 16:00:00,76.2,60.3,28.14,South,175,1.0,1.0,58,0.00,,,0.00,Wunderground v.1.15,2013-09-19 20:00:00,
2013-09-19 16:09:00,76.6,59.0,28.14,South,184,0.0,-999.0,55,-99.99,,,0.00,weatherlink.com 1.10,2013-09-19 20:09:00,
2013-09-19 16:24:00,76.5,60.0,28.13,South,175,0.0,-999.0,56,-99.99,,,0.00,weatherlink.com 1.10,2013-09-19 20:24:00,
2013-09-19 16:30:00,76.5,59.1,28.13,South,182,0.0,7.0,55,0.00,,,0.00,Wunderground v.1.15,2013-09-19 20:30:00,
2013-09-19 16:39:00,76.2,60.0,28.13,WSW,246,0.0,-999.0,57,-99.99,,,0.00,weatherlink.com 1.10,2013-09-19 20:39:00,
2013-09-19 16:54:00,76.2,60.0,28.13,SSW,207,0.0,-999.0,58,-99.99,,,0.00,weatherlink.com 1.10,2013-09-19 20:54:00,
2013-09-19 17:00:00,76.2,59.9,28.13,SSW,198,1.0,1.0,57,0.00,,,0.00,Wunderground v.1.15,2013-09-19 21:00:00,
2013-09-19 17:09:00,76.1,59.0,28.13,SSW,194,0.0,-999.0,56,-99.99,,,0.00,weatherlink.com 1.10,2013-09-19 21:09:00,
2013-09-19 17:24:00,76.0,60.0,28.13,South,186,0.0,-999.0,57,-99.99,,,0.00,weatherlink.com 1.10,2013-09-19 21:24:00,
2013-09-19 17:30:00,75.9,60.5,28.14,SW,219,1.0,1.0,59,0.00,,,0.00,Wunderground v.1.15,2013-09-19 21:30:00,
2013-09-19 17:39:00,76.0,60.0,28.13,SW,219,0.0,-999.0,57,-99.99,,,0.00,weatherlink.com 1.10,2013-09-19 21:39:00,
2013-09-19 17:54:00,75.7,61.0,28.14,West,259,2.0,-999.0,61,-99.99,,,0.00,weatherlink.com 1.10,2013-09-19 21:54:00,
2013-09-19 18:00:00,75.3,60.9,28.14,West,262,1.0,1.0,61,0.00,,,0.00,Wunderground v.1.15,2013-09-19 22:00:00,
2013-09-19 18:09:00,74.9,62.0,28.14,WSW,241,0.0,-999.0,64,-99.99,,,0.00,weatherlink.com 1.10,2013-09-19 22:09:00,
2013-09-19 18:30:00,73.9,61.8,28.14,WSW,241,0.0,6.0,66,0.00,,,0.00,Wunderground v.1.15,2013-09-19 22:30:00,
2013-09-19 18:39:00,73.4,62.0,28.14,WSW,241,0.0,-999.0,67,-99.99,,,0.00,weatherlink.com 1.10,2013-09-19 22:39:00,
2013-09-19 18:54:00,71.9,63.0,28.14,NNW,327,0.0,-999.0,73,-99.99,,,0.00,weatherlink.com 1.10,2013-09-19 22:54:00,
2013-09-19 19:00:00,71.3,63.0,28.14,NW,325,0.0,6.0,75,0.00,,,0.00,Wunderground v.1.15,2013-09-19 23:00:00,
2013-09-19 19:09:00,70.4,63.0,28.14,North,360,0.0,-999.0,77,-99.99,,,0.00,weatherlink.com 1.10,2013-09-19 23:09:00,
2013-09-19 19:24:00,69.1,62.0,28.14,North,360,0.0,-999.0,79,-99.99,,,0.00,weatherlink.com 1.10,2013-09-19 23:24:00,
2013-09-19 19:30:00,68.6,62.2,28.14,North,360,0.0,6.0,80,0.00,,,0.00,Wunderground v.1.15,2013-09-19 23:30:00,
2013-09-19 19:39:00,68.1,62.0,28.14,North,360,0.0,-999.0,81,-99.99,,,0.00,weatherlink.com 1.10,2013-09-19 23:39:00,
2013-09-19 19:54:00,67.4,62.0,28.15,North,360,0.0,-999.0,82,-99.99,,,0.00,weatherlink.com 1.10,2013-09-19 23:54:00,
2013-09-19 20:00:00,67.2,61.9,28.15,North,360,0.0,0.0,83,0.00,,,0.00,Wunderground v.1.15,2013-09-20 00:00:00,
2013-09-19 20:09:00,66.4,61.0,28.15,North,360,0.0,-999.0,82,-99.99,,,0.00,weatherlink.com 1.10,2013-09-20 00:09:00,
2013-09-19 20:24:00,65.2,60.0,28.15,North,360,0.0,-999.0,84,-99.99,,,0.00,weatherlink.com 1.10,2013-09-20 00:24:00,
2013-09-19 20:30:00,64.9,60.3,28.15,North,360,0.0,0.0,85,0.00,,,0.00,Wunderground v.1.15,2013-09-20 00:30:00,
2013-09-19 20:39:00,63.9,59.0,28.14,North,360,0.0,-999.0,85,-99.99,,,0.00,weatherlink.com 1.10,2013-09-20 00:39:00,
2013-09-19 20:54:00,62.1,58.0,28.15,North,360,0.0,-999.0,86,-99.99,,,0.00,weatherlink.com 1.10,2013-09-20 00:54:00,
2013-09-19 21:00:00,62.2,58.3,28.15,NE,39,0.0,0.0,87,0.00,,,0.00,Wunderground v.1.15,2013-09-20 01:00:00,
2013-09-19 21:09:00,62.0,58.0,28.14,NE,39,0.0,-999.0,87,-99.99,,,0.00,weatherlink.com 1.10,2013-09-20 01:09:00,
2013-09-19 21:24:00,60.9,57.0,28.14,NE,39,0.0,-999.0,87,-99.99,,,0.00,weatherlink.com 1.10,2013-09-20 01:24:00,
2013-09-19 21:30:00,60.4,56.5,28.14,NE,38,0.0,0.0,87,0.00,,,0.00,Wunderground v.1.15,2013-09-20 01:30:00,
2013-09-19 21:39:00,59.9,56.0,28.14,NE,39,0.0,-999.0,88,-99.99,,,0.00,weatherlink.com 1.10,2013-09-20 01:39:00,
2013-09-19 21:54:00,59.7,56.0,28.14,NE,39,0.0,-999.0,88,-99.99,,,0.00,weatherlink.com 1.10,2013-09-20 01:54:00,
2013-09-19 22:00:00,59.4,55.8,28.14,NE,38,0.0,0.0,88,0.00,,,0.00,Wunderground v.1.15,2013-09-20 02:00:00,
2013-09-19 22:09:00,58.6,55.0,28.14,NE,39,0.0,-999.0,88,-99.99,,,0.00,weatherlink.com 1.10,2013-09-20 02:09:00,
2013-09-19 22:24:00,58.0,55.0,28.13,NE,39,0.0,-999.0,89,-99.99,,,0.00,weatherlink.com 1.10,2013-09-20 02:24:00,
2013-09-19 22:30:00,58.0,54.5,28.14,NE,38,0.0,0.0,88,0.00,,,0.00,Wunderground v.1.15,2013-09-20 02:30:00,
2013-09-19 22:39:00,57.8,55.0,28.13,NE,39,0.0,-999.0,89,-99.99,,,0.00,weatherlink.com 1.10,2013-09-20 02:39:00,
2013-09-19 22:54:00,57.8,55.0,28.13,NE,39,0.0,-999.0,89,-99.99,,,0.00,weatherlink.com 1.10,2013-09-20 02:54:00,
2013-09-19 23:00:00,57.6,54.4,28.12,NE,38,0.0,0.0,89,0.00,,,0.00,Wunderground v.1.15,2013-09-20 03:00:00,
2013-09-19 23:10:00,57.5,54.0,28.12,NE,39,0.0,-999.0,89,-99.99,,,0.00,weatherlink.com 1.10,2013-09-20 03:10:00,
2013-09-19 23:25:00,57.0,54.0,28.12,East,83,0.0,-999.0,89,-99.99,,,0.00,weatherlink.com 1.10,2013-09-20 03:25:00,
2013-09-19 23:39:00,57.4,54.0,28.12,East,83,0.0,-999.0,89,-99.99,,,0.00,weatherlink.com 1.10,2013-09-20 03:39:00,
2013-09-19 23:54:00,57.3,54.0,28.12,East,83,0.0,-999.0,89,-99.99,,,0.00,weatherlink.com 1.10,2013-09-20 03:54:00,